Terminal Aerodrome Forecast
Issued by NWS

Home | Current Version | Previous Version | Text Only | Print | Product List | Glossary On
Versions: 1 2 3 4 5 6 7 8 9 10 11 12 13 14
000
FTUS45 KRIW 242320
TAFBPI
TAF
KBPI 242320Z 2500/2524 VRB11G22KT P6SM VCTS SCT035 SCT050CB BKN080
     FM250200 03007KT P6SM VCSH SCT050 BKN080
     FM250400 VRB04KT P6SM SCT050 BKN100
     FM251300 VRB05KT P6SM -SHRA BKN060
     FM251900 28012G20KT P6SM VCTS SCT050CB BKN080=

USA.gov is the U.S. government's official web portal to all federal, state and local government web resources and services.